createdAt,value
2023-03-23T16:08:13.637Z,17.56
2023-03-23T16:11:32.900Z,17.47
2023-03-23T16:14:44.391Z,17.44
2023-03-23T16:18:15.121Z,17.41
2023-03-23T16:21:10.329Z,17.37
2023-03-23T16:24:47.444Z,17.33
2023-03-23T16:28:24.322Z,17.27
2023-03-23T16:31:34.484Z,17.22
2023-03-23T16:35:11.467Z,17.19
2023-03-23T16:38:19.416Z,17.15
2023-03-23T16:41:50.008Z,17.11
2023-03-23T16:45:36.849Z,17.07
2023-03-23T16:49:03.109Z,17.00
2023-03-23T16:52:31.673Z,16.95
2023-03-23T16:55:49.486Z,16.98
2023-03-23T16:59:37.057Z,16.95
2023-03-23T17:03:08.471Z,16.88
2023-03-23T17:06:55.727Z,16.77
2023-03-23T17:10:45.273Z,16.70
2023-03-23T17:14:33.346Z,16.70
2023-03-23T17:18:21.689Z,16.65
2023-03-23T17:22:08.866Z,16.61
2023-03-23T17:29:54.089Z,16.56
2023-03-23T17:33:37.275Z,16.54
2023-03-23T17:37:26.763Z,16.55
2023-03-23T17:41:15.822Z,16.54
2023-03-23T17:45:07.149Z,16.55
2023-03-23T17:48:56.222Z,16.55
2023-03-23T17:52:45.515Z,16.50
2023-03-23T17:56:35.070Z,16.48
2023-03-23T18:04:10.463Z,16.49
2023-03-23T18:07:59.608Z,16.44
2023-03-23T18:11:48.753Z,16.44
2023-03-23T18:19:33.980Z,16.45
2023-03-23T18:23:22.979Z,16.43
2023-03-23T18:27:12.147Z,16.39
2023-03-23T18:31:01.456Z,16.36
2023-03-23T18:34:50.626Z,16.34
2023-03-23T18:38:39.709Z,16.36
2023-03-23T18:42:28.655Z,16.37
2023-03-23T18:46:17.804Z,16.38
2023-03-23T18:50:07.326Z,16.38
2023-03-23T18:53:58.476Z,16.38
2023-03-23T18:57:47.281Z,16.39
2023-03-23T19:01:35.170Z,16.43
2023-03-23T19:05:25.785Z,16.45
2023-03-23T19:08:55.185Z,16.43
2023-03-23T19:12:44.012Z,16.41
2023-03-23T19:16:33.178Z,16.37
2023-03-23T19:40:09.480Z,16.25
2023-03-23T19:44:05.821Z,16.22
2023-03-23T19:47:53.747Z,16.22
2023-03-23T19:51:41.437Z,16.22
2023-03-23T19:55:29.785Z,16.18
2023-03-23T19:59:18.001Z,16.17
2023-03-23T20:18:19.615Z,16.09
2023-03-23T20:22:08.780Z,16.01
2023-03-23T20:25:57.917Z,15.99
2023-03-23T20:29:47.202Z,15.99
2023-03-23T21:02:56.479Z,16.03
2023-03-23T21:06:44.229Z,16.04
2023-03-23T21:10:31.750Z,16.04
2023-03-23T21:14:19.330Z,16.04
2023-03-23T21:18:08.686Z,16.02
2023-03-23T21:21:36.161Z,15.98
2023-03-23T21:25:34.028Z,15.95
2023-03-23T21:29:23.026Z,15.87
2023-03-23T21:33:12.790Z,15.79
2023-03-23T21:48:31.845Z,15.73
2023-03-23T21:52:20.819Z,15.66
2023-03-23T21:56:12.787Z,15.62
2023-03-23T22:00:02.725Z,15.63
2023-03-23T22:03:53.665Z,15.59
2023-03-23T22:07:45.137Z,15.49
2023-03-23T22:11:42.292Z,15.38
2023-03-23T22:15:33.179Z,15.27
2023-03-23T22:38:43.255Z,15.29
2023-03-23T22:42:32.284Z,15.33
2023-03-23T22:46:21.320Z,15.33
2023-03-23T22:50:10.424Z,15.29
2023-03-23T22:53:52.104Z,15.24
2023-03-23T22:57:41.291Z,15.16
2023-03-23T23:01:30.336Z,15.07
2023-03-23T23:05:19.778Z,15.03
2023-03-23T23:09:09.005Z,14.97
2023-03-23T23:12:58.293Z,14.93
2023-03-23T23:16:50.241Z,14.88
2023-03-23T23:20:39.697Z,14.85
2023-03-23T23:24:28.775Z,14.83
2023-03-23T23:28:17.739Z,14.79
2023-03-23T23:32:06.836Z,14.78
2023-03-23T23:35:56.248Z,14.78
2023-03-23T23:39:45.550Z,14.74
2023-03-23T23:43:35.017Z,14.72
2023-03-23T23:47:24.344Z,14.71
2023-03-23T23:51:15.100Z,14.67
2023-03-23T23:55:05.191Z,14.66
2023-03-23T23:58:56.684Z,14.73
